地図

経路データ

SID SEASON NUMBER BASIN SUBBASIN NAME ISO_TIME NATURE LAT LON WMO_WIND WMO_PRES WMO_AGENCY TRACK_TYPE DIST2LAND LANDFALL IFLAG USA_AGENCY USA_ATCF_ID USA_LAT USA_LON USA_RECORD USA_STATUS USA_WIND USA_PRES USA_SSHS USA_R34_NE USA_R34_SE USA_R34_SW USA_R34_NW USA_R50_NE USA_R50_SE USA_R50_SW USA_R50_NW USA_R64_NE USA_R64_SE USA_R64_SW USA_R64_NW USA_POCI USA_ROCI USA_RMW USA_EYE TOKYO_LAT TOKYO_LON TOKYO_GRADE TOKYO_WIND TOKYO_PRES TOKYO_R50_DIR TOKYO_R50_LONG TOKYO_R50_SHORT TOKYO_R30_DIR TOKYO_R30_LONG TOKYO_R30_SHORT TOKYO_LAND CMA_LAT CMA_LON CMA_CAT CMA_WIND CMA_PRES HKO_LAT HKO_LON HKO_CAT HKO_WIND HKO_PRES NEWDELHI_LAT NEWDELHI_LON NEWDELHI_GRADE NEWDELHI_WIND NEWDELHI_PRES NEWDELHI_CI NEWDELHI_DP NEWDELHI_POCI REUNION_LAT REUNION_LON REUNION_TYPE REUNION_WIND REUNION_PRES REUNION_TNUM REUNION_CI REUNION_RMW REUNION_R34_NE REUNION_R34_SE REUNION_R34_SW REUNION_R34_NW REUNION_R50_NE REUNION_R50_SE REUNION_R50_SW REUNION_R50_NW REUNION_R64_NE REUNION_R64_SE REUNION_R64_SW REUNION_R64_NW BOM_LAT BOM_LON BOM_TYPE BOM_WIND BOM_PRES BOM_TNUM BOM_CI BOM_RMW BOM_R34_NE BOM_R34_SE BOM_R34_SW BOM_R34_NW BOM_R50_NE BOM_R50_SE BOM_R50_SW BOM_R50_NW BOM_R64_NE BOM_R64_SE BOM_R64_SW BOM_R64_NW BOM_ROCI BOM_POCI BOM_EYE BOM_POS_METHOD BOM_PRES_METHOD NADI_LAT NADI_LON NADI_CAT NADI_WIND NADI_PRES WELLINGTON_LAT WELLINGTON_LON WELLINGTON_WIND WELLINGTON_PRES DS824_LAT DS824_LON DS824_STAGE DS824_WIND DS824_PRES TD9636_LAT TD9636_LON TD9636_STAGE TD9636_WIND TD9636_PRES TD9635_LAT TD9635_LON TD9635_WIND TD9635_PRES TD9635_ROCI NEUMANN_LAT NEUMANN_LON NEUMANN_CLASS NEUMANN_WIND NEUMANN_PRES MLC_LAT MLC_LON MLC_CLASS MLC_WIND MLC_PRES USA_GUST BOM_GUST BOM_GUST_PER REUNION_GUST REUNION_GUST_PER USA_SEAHGT USA_SEARAD_NE USA_SEARAD_SE USA_SEARAD_SW USA_SEARAD_NW STORM_SPEED STORM_DIR
1989289N16243 1989 117 EP MM NOT_NAMED 1989-10-16 00:00:00 TS 15.8000 -116.800 20 hurdat_epa main 1067 1067 O_____________ hurdat_epa EP241989 15.8000 -116.800 TD 20 -1 18 239
1989289N16243 1989 117 EP MM NOT_NAMED 1989-10-16 03:00:00 TS 15.3260 -117.616 main 1165 1165 P_____________ EP241989 15.3260 -117.616 TD 22 -1 16 239
1989289N16243 1989 117 EP MM NOT_NAMED 1989-10-16 06:00:00 TS 15.0000 -118.200 25 hurdat_epa main 1234 1234 O_____________ hurdat_epa EP241989 15.0000 -118.200 TD 25 -1 9 242
1989289N16243 1989 117 EP MM NOT_NAMED 1989-10-16 09:00:00 TS 14.9246 -118.405 main 1256 1248 P_____________ EP241989 14.9246 -118.405 TD 25 -1 2 270
1989289N16243 1989 117 EP MM NOT_NAMED 1989-10-16 12:00:00 TS 15.0000 -118.400 25 hurdat_epa main 1248 1240 O_____________ hurdat_epa EP241989 15.0000 -118.400 TD 25 -1 2 345
1989289N16243 1989 117 EP MM NOT_NAMED 1989-10-16 15:00:00 TS 15.0775 -118.437 main 1240 1232 P_____________ EP241989 15.0775 -118.437 TD 25 -1 2 8
1989289N16243 1989 117 EP MM NOT_NAMED 1989-10-16 18:00:00 TS 15.2000 -118.400 25 hurdat_epa main 1232 1217 O_____________ hurdat_epa EP241989 15.2000 -118.400 TD 25 -1 3 32
1989289N16243 1989 117 EP MM NOT_NAMED 1989-10-16 21:00:00 TS 15.3500 -118.258 main 1209 1186 P_____________ EP241989 15.3500 -118.258 TD 25 -1 4 44
1989289N16243 1989 117 EP MM NOT_NAMED 1989-10-17 00:00:00 TS 15.5000 -118.100 25 hurdat_epa main 1186 1170 O_____________ hurdat_epa EP241989 15.5000 -118.100 TD 25 -1 3 40
1989289N16243 1989 117 EP MM NOT_NAMED 1989-10-17 03:00:00 TS 15.6075 -118.027 main 1170 1162 P_____________ EP241989 15.6075 -118.027 TD 25 -1 2 27
1989289N16243 1989 117 EP MM NOT_NAMED 1989-10-17 06:00:00 TS 15.7000 -118.000 25 hurdat_epa main 1162 1154 O_____________ hurdat_epa EP241989 15.7000 -118.000 TD 25 -1 2 17
1989289N16243 1989 117 EP MM NOT_NAMED 1989-10-17 09:00:00 TS 15.8075 -117.970 main 1154 1147 P_____________ EP241989 15.8075 -117.970 TD 25 -1 2 8
1989289N16243 1989 117 EP MM NOT_NAMED 1989-10-17 12:00:00 TS 15.9000 -118.000 25 hurdat_epa main 1147 1147 O_____________ hurdat_epa EP241989 15.9000 -118.000 TD 25 -1 2 309
1989289N16243 1989 117 EP MM NOT_NAMED 1989-10-17 15:00:00 TS 15.9425 -118.143 main 1154 1154 P_____________ EP241989 15.9425 -118.143 TD 25 -1 3 289
1989289N16243 1989 117 EP MM NOT_NAMED 1989-10-17 18:00:00 TS 16.0000 -118.300 25 hurdat_epa main 1162 1154 O_____________ hurdat_epa EP241989 16.0000 -118.300 TD 25 -1 3 312
1989289N16243 1989 117 EP MM NOT_NAMED 1989-10-17 21:00:00 TS 16.1275 -118.358 main 1162 1145 P_____________ EP241989 16.1275 -118.358 TD 27 -1 3 343
1989289N16243 1989 117 EP MM NOT_NAMED 1989-10-18 00:00:00 TS 16.3000 -118.400 30 hurdat_epa main 1145 1132 O_____________ hurdat_epa EP241989 16.3000 -118.400 TD 30 -1 4 341
1989289N16243 1989 117 EP MM NOT_NAMED 1989-10-18 03:00:00 TS 16.5000 -118.485 main 1132 1120 P_____________ EP241989 16.5000 -118.485 TD 30 -1 4 335
1989289N16243 1989 117 EP MM NOT_NAMED 1989-10-18 06:00:00 TS 16.7000 -118.600 30 hurdat_epa main 1120 1109 O_____________ hurdat_epa EP241989 16.7000 -118.600 TD 30 -1 4 328
1989289N16243 1989 117 EP MM NOT_NAMED 1989-10-18 09:00:00 TS 16.8650 -118.728 main 1109 1106 P_____________ EP241989 16.8650 -118.728 TD 30 -1 4 316
1989289N16243 1989 117 EP MM NOT_NAMED 1989-10-18 12:00:00 TS 17.0000 -118.900 30 hurdat_epa main 1113 1111 O_____________ hurdat_epa EP241989 17.0000 -118.900 TD 30 -1 5 304
1989289N16243 1989 117 EP MM NOT_NAMED 1989-10-18 15:00:00 TS 17.1225 -119.127 main 1117 1116 P_____________ EP241989 17.1225 -119.127 TD 30 -1 5 293
1989289N16243 1989 117 EP MM NOT_NAMED 1989-10-18 18:00:00 TS 17.2000 -119.400 30 hurdat_epa main 1129 1129 O_____________ hurdat_epa EP241989 17.2000 -119.400 TD 30 -1 5 280
1989289N16243 1989 117 EP MM NOT_NAMED 1989-10-18 21:00:00 TS 17.2149 -119.678 main 1150 1150 P_____________ EP241989 17.2149 -119.678 TD 27 -1 6 270
1989289N16243 1989 117 EP MM NOT_NAMED 1989-10-19 00:00:00 TS 17.2000 -120.000 25 hurdat_epa main 1172 1172 O_____________ hurdat_epa EP241989 17.2000 -120.000 TD 25 -1 7 267
1989289N16243 1989 117 EP MM NOT_NAMED 1989-10-19 03:00:00 TS 17.1850 -120.385 main 1201 1201 P_____________ EP241989 17.1850 -120.385 TD 25 -1 8 270
1989289N16243 1989 117 EP MM NOT_NAMED 1989-10-19 06:00:00 TS 17.2000 -120.800 25 hurdat_epa main 1231 1231 O_____________ hurdat_epa EP241989 17.2000 -120.800 TD 25 -1 8 277
1989289N16243 1989 117 EP MM NOT_NAMED 1989-10-19 09:00:00 TS 17.2801 -121.205 main 1254 1254 P_____________ EP241989 17.2801 -121.205 TD 25 -1 8 285
1989289N16243 1989 117 EP MM NOT_NAMED 1989-10-19 12:00:00 TS 17.4000 -121.600 25 hurdat_epa main 1277 O_____________ hurdat_epa EP241989 17.4000 -121.600 TD 25 -1 8 288

IBTrACS Databaseについて

本データベースは、米国NOAAが公開する1842年以降の世界の熱帯低気圧のベストトラックデータアーカイブInternational Best Track Archive for Climate Stewardship (IBTrACS)を、ウェブで閲覧しやすい形式に変換したものです。

最終更新日:2021-11-26